Time;durP1;ratioP1;P1;durP2;ratioP2;P2;SDS_P1;SDS_P2;PMS_P1;PMS_P2;Temp;Humidity;BMP_temperature;BMP_pressure;BME280_temperature;BME280_humidity;BME280_pressure;Samples;Min_cycle;Max_cycle;Signal;HPM_P1;HPM_P2
2022/04/05 00:00:08;;;;;;;69.87;65.67;;;;;;;13.40;100.00;101027.09;1998902;71;33375;-79
2022/04/05 00:05:52;;;;;;;68.07;64.07;;;;;;;13.34;100.00;101026.91;2015048;71;32970;-78
2022/04/05 00:11:36;;;;;;;70.43;66.23;;;;;;;13.37;100.00;101018.50;2017311;71;32961;-79
2022/04/05 00:17:21;;;;;;;70.33;66.23;;;;;;;13.31;100.00;101026.66;1923030;73;33107;-78
2022/04/05 00:23:05;;;;;;;68.97;64.83;;;;;;;13.27;100.00;101024.20;2004251;71;32954;-70
2022/04/05 00:28:49;;;;;;;68.40;64.20;;;;;;;13.27;100.00;101029.22;1991887;71;32756;-79
2022/04/05 00:34:37;;;;;;;69.47;65.27;;;;;;;13.23;100.00;101037.36;2014992;71;32944;-71
2022/04/05 00:40:21;;;;;;;70.93;66.63;;;;;;;13.13;100.00;101038.06;2015179;71;32833;-71
2022/04/05 00:46:05;;;;;;;69.93;65.73;;;;;;;13.11;100.00;101032.78;2011590;71;32895;-71
2022/04/05 00:51:52;;;;;;;68.27;63.97;;;;;;;13.03;100.00;101043.16;2008489;71;32935;-71
2022/04/05 00:57:40;;;;;;;69.60;65.27;;;;;;;13.01;100.00;101044.01;2013321;71;32863;-71
2022/04/05 01:03:29;;;;;;;72.63;68.13;;;;;;;12.89;100.00;101034.40;2008031;71;32819;-75
2022/04/05 01:09:14;;;;;;;73.70;69.00;;;;;;;12.78;100.00;101028.12;2005974;71;33460;-71
2022/04/05 01:15:01;;;;;;;72.17;67.57;;;;;;;12.82;100.00;101024.17;2000696;71;32814;-70
2022/04/05 01:20:46;;;;;;;73.63;69.03;;;;;;;12.66;100.00;101024.33;2000408;71;32959;-70
2022/04/05 01:26:32;;;;;;;72.47;67.77;;;;;;;12.65;100.00;101024.08;2002526;71;32858;-78
2022/04/05 01:32:16;;;;;;;73.07;68.37;;;;;;;12.64;100.00;101026.59;2004112;70;32908;-80
2022/04/05 01:38:02;;;;;;;70.97;66.37;;;;;;;12.56;100.00;101021.66;1995518;71;32934;-69
2022/04/05 01:43:46;;;;;;;70.47;65.87;;;;;;;12.51;100.00;101023.66;1995642;71;32823;-69
2022/04/05 01:49:30;;;;;;;74.97;70.10;;;;;;;12.47;100.00;101031.78;2015069;71;33388;-80
2022/04/05 01:55:17;;;;;;;73.53;68.83;;;;;;;12.48;100.00;101028.44;1991459;71;33282;-69
2022/04/05 02:01:02;;;;;;;73.70;68.90;;;;;;;12.43;100.00;101022.35;2013091;71;32895;-71
2022/04/05 02:06:48;;;;;;;77.20;72.17;;;;;;;12.47;100.00;101026.77;1997054;70;32857;-71
2022/04/05 02:12:32;;;;;;;71.73;67.00;;;;;;;12.43;100.00;101025.14;1998873;71;32786;-78
2022/04/05 02:18:16;;;;;;;72.70;67.90;;;;;;;12.39;100.00;101022.67;2013929;71;33274;-79
2022/04/05 02:24:00;;;;;;;73.17;68.40;;;;;;;12.37;100.00;101026.86;1991322;71;32841;-79
2022/04/05 02:29:44;;;;;;;78.90;73.83;;;;;;;12.38;100.00;101018.77;1991706;71;32766;-79
2022/04/05 02:35:29;;;;;;;75.63;70.63;;;;;;;12.38;100.00;101015.43;2013456;71;32839;-71
2022/04/05 02:41:15;;;;;;;76.03;70.93;;;;;;;12.37;100.00;101012.37;1996924;71;32832;-80
2022/04/05 02:46:59;;;;;;;74.90;70.00;;;;;;;12.32;100.00;101013.84;2009817;71;32880;-70
2022/04/05 02:52:43;;;;;;;71.87;66.70;;;;;;;12.35;100.00;101014.63;2018420;70;32879;-70
2022/04/05 02:58:28;;;;;;;72.73;67.70;;;;;;;12.26;100.00;101008.03;2012967;71;32906;-70
2022/04/05 03:04:13;;;;;;;75.53;70.53;;;;;;;12.29;100.00;101006.05;2014942;71;32931;-79
2022/04/05 03:09:57;;;;;;;70.93;66.03;;;;;;;12.21;100.00;100997.77;2009713;71;32874;-72
2022/04/05 03:15:41;;;;;;;73.53;68.43;;;;;;;12.20;100.00;100996.09;2014934;71;33331;-70
2022/04/05 03:21:25;;;;;;;72.00;67.00;;;;;;;12.18;100.00;100998.92;2013283;71;32824;-70
2022/04/05 03:27:09;;;;;;;72.80;67.70;;;;;;;12.09;100.00;100990.92;2014984;70;32898;-78
2022/04/05 03:32:53;;;;;;;74.37;69.17;;;;;;;12.09;100.00;100997.32;2009616;71;32830;-71
2022/04/05 03:38:37;;;;;;;69.23;64.33;;;;;;;12.06;100.00;100995.13;2004525;71;32869;-80
2022/04/05 03:44:21;;;;;;;73.63;68.63;;;;;;;12.05;100.00;100993.47;2014884;71;32907;-70
2022/04/05 03:50:07;;;;;;;72.90;67.70;;;;;;;12.05;100.00;100987.06;2014981;71;33317;-70
2022/04/05 03:55:51;;;;;;;71.87;66.87;;;;;;;12.08;100.00;100991.48;2009727;71;32847;-70
2022/04/05 04:01:36;;;;;;;71.53;66.63;;;;;;;12.08;100.00;100985.91;1955505;70;39866;-71
2022/04/05 04:07:20;;;;;;;73.70;68.70;;;;;;;12.10;100.00;100981.45;2009285;71;32838;-80
2022/04/05 04:13:05;;;;;;;75.53;70.07;;;;;;;12.03;100.00;100978.16;2009404;71;32833;-70
2022/04/05 04:18:49;;;;;;;76.13;70.73;;;;;;;12.04;100.00;100981.21;2011574;71;32778;-79
2022/04/05 04:24:34;;;;;;;77.93;72.53;;;;;;;12.03;100.00;100980.94;1998441;71;32832;-78
2022/04/05 04:30:18;;;;;;;72.77;67.43;;;;;;;12.02;100.00;100971.78;2011731;71;32844;-79
2022/04/05 04:36:03;;;;;;;72.73;67.40;;;;;;;12.02;100.00;100978.74;2014927;71;33414;-79
2022/04/05 04:41:47;;;;;;;69.37;64.17;;;;;;;12.02;100.00;100975.13;1998352;71;32825;-71
2022/04/05 04:47:31;;;;;;;74.27;69.17;;;;;;;12.05;100.00;100986.50;2011086;71;32881;-79
2022/04/05 04:53:15;;;;;;;72.77;67.37;;;;;;;12.06;100.00;100984.55;2013209;71;33294;-79
2022/04/05 04:58:59;;;;;;;73.27;67.90;;;;;;;12.06;100.00;100979.81;2011176;71;32908;-78
2022/04/05 05:04:45;;;;;;;73.00;67.80;;;;;;;12.06;100.00;100991.52;2011721;71;33333;-79
2022/04/05 05:10:29;;;;;;;74.03;68.63;;;;;;;12.00;100.00;100989.33;2014727;71;32886;-78
2022/04/05 05:16:13;;;;;;;76.30;70.80;;;;;;;11.95;100.00;100978.78;2008110;71;30876;-71
2022/04/05 05:21:58;;;;;;;73.00;67.67;;;;;;;11.97;100.00;100976.00;2011149;71;32867;-70
2022/04/05 05:27:42;;;;;;;72.93;67.43;;;;;;;11.91;100.00;100985.50;2012844;71;30972;-70
2022/04/05 05:33:26;;;;;;;76.27;70.50;;;;;;;11.90;100.00;100982.44;2002308;71;33409;-78
2022/04/05 05:39:11;;;;;;;74.40;68.80;;;;;;;11.84;100.00;100984.45;2004424;71;33274;-69
2022/04/05 05:44:55;;;;;;;77.83;71.93;;;;;;;11.86;100.00;100980.80;2014882;71;33323;-69
2022/04/05 05:50:39;;;;;;;81.40;75.80;;;;;;;11.92;100.00;100991.34;2011421;71;33345;-78
2022/04/05 05:56:23;;;;;;;79.10;73.30;;;;;;;11.90;100.00;101001.92;1995320;71;33223;-77
2022/04/05 06:02:07;;;;;;;80.53;74.97;;;;;;;11.91;100.00;100998.58;1991883;71;33237;-79
2022/04/05 06:07:52;;;;;;;76.10;70.70;;;;;;;11.88;100.00;100997.78;2016769;71;33323;-71
2022/04/05 06:13:37;;;;;;;76.27;70.90;;;;;;;11.84;100.00;101003.10;2015005;71;32888;-79
2022/04/05 06:19:21;;;;;;;73.83;68.37;;;;;;;11.90;100.00;101004.70;2013099;71;33360;-77
2022/04/05 06:25:07;;;;;;;79.27;73.87;;;;;;;11.91;100.00;101001.36;1995372;71;33278;-77
2022/04/05 06:30:51;;;;;;;74.33;69.13;;;;;;;11.98;100.00;101000.50;1991483;70;32764;-77
2022/04/05 06:36:36;;;;;;;74.70;69.23;;;;;;;12.00;100.00;101016.33;1994921;71;32894;-77
2022/04/05 06:42:21;;;;;;;75.30;69.90;;;;;;;11.98;100.00;101015.22;2007530;71;32837;-77
2022/04/05 06:48:06;;;;;;;73.67;68.17;;;;;;;11.97;100.00;101012.19;1995433;71;32765;-71
2022/04/05 06:53:50;;;;;;;74.03;68.43;;;;;;;12.00;100.00;101014.94;2000315;71;32832;-79
2022/04/05 06:59:35;;;;;;;70.30;64.87;;;;;;;12.10;100.00;101013.47;1997160;71;32881;-78
2022/04/05 07:05:20;;;;;;;73.37;67.93;;;;;;;12.14;100.00;101019.56;1997201;71;32779;-71
2022/04/05 07:11:05;;;;;;;71.43;66.23;;;;;;;12.21;100.00;101017.27;2015160;71;33346;-71
2022/04/05 07:16:49;;;;;;;68.17;62.77;;;;;;;12.26;100.00;101013.05;1997021;71;32808;-71
2022/04/05 07:22:33;;;;;;;70.10;64.83;;;;;;;12.28;100.00;101016.91;1997612;71;33396;-78
2022/04/05 07:28:17;;;;;;;69.83;64.40;;;;;;;12.29;100.00;101019.41;1991863;71;33311;-72
2022/04/05 07:34:03;;;;;;;70.90;65.60;;;;;;;12.25;100.00;101013.33;2008341;71;32761;-78
2022/04/05 07:39:48;;;;;;;72.23;67.03;;;;;;;12.25;100.00;101016.94;2018447;71;32901;-71
2022/04/05 07:45:32;;;;;;;70.73;65.53;;;;;;;12.28;100.00;101005.20;1994981;70;30894;-78
2022/04/05 07:51:17;;;;;;;67.93;62.90;;;;;;;12.31;100.00;101012.16;2005665;71;33017;-78
2022/04/05 07:57:03;;;;;;;69.80;64.50;;;;;;;12.42;100.00;101008.14;2008475;70;32779;-77
2022/04/05 08:02:47;;;;;;;70.67;65.47;;;;;;;12.40;100.00;100995.65;1995287;71;33235;-72
2022/04/05 08:08:32;;;;;;;64.97;60.37;;;;;;;12.34;100.00;101001.82;2015167;71;32841;-76
2022/04/05 08:14:17;;;;;;;70.63;66.13;;;;;;;12.39;100.00;100998.99;2005932;71;32821;-73
2022/04/05 08:20:02;;;;;;;69.83;65.33;;;;;;;12.38;100.00;100995.93;2006290;71;32827;-81
2022/04/05 08:25:46;;;;;;;70.70;65.80;;;;;;;12.44;100.00;101000.34;2004539;71;32830;-74
2022/04/05 08:31:30;;;;;;;69.27;64.37;;;;;;;12.41;100.00;100999.52;2009406;71;32834;-81
2022/04/05 08:37:15;;;;;;;72.47;67.33;;;;;;;12.45;100.00;100992.23;2016861;71;32923;-80
2022/04/05 08:43:00;;;;;;;68.90;63.80;;;;;;;12.43;100.00;100992.27;2000560;71;32821;-80
2022/04/05 08:48:48;;;;;;;69.80;64.90;;;;;;;12.42;100.00;101002.58;1997155;71;33222;-72
2022/04/05 08:54:32;;;;;;;66.70;61.73;;;;;;;12.50;100.00;101001.09;2008081;70;32776;-74
2022/04/05 09:00:19;;;;;;;63.23;58.83;;;;;;;12.69;100.00;100993.10;1994781;71;33031;-76
2022/04/05 09:06:28;;;;;;;63.77;59.43;;;;;;;12.75;100.00;100986.33;2011875;71;32808;-74
2022/04/05 09:12:26;;;;;;;61.20;57.10;;;;;;;13.03;100.00;100974.84;2016581;71;32803;-74
2022/04/05 09:18:10;;;;;;;61.37;57.03;;;;;;;13.34;100.00;100980.05;2009745;71;33325;-74
2022/04/05 09:24:08;;;;;;;63.93;59.83;;;;;;;13.42;100.00;100975.19;2018785;71;32952;-75
2022/04/05 09:30:02;;;;;;;60.47;56.70;;;;;;;13.64;100.00;100978.20;2014837;71;32877;-82
2022/04/05 09:35:55;;;;;;;63.90;59.80;;;;;;;13.77;100.00;100971.86;2014772;71;32914;-81
2022/04/05 09:41:36;;;;;;;64.67;60.60;;;;;;;13.62;100.00;100987.44;2018724;71;32868;-77
2022/04/05 09:47:24;;;;;;;62.30;58.20;;;;;;;13.51;100.00;100988.17;2016946;71;33278;-81
2022/04/05 09:53:09;;;;;;;63.10;58.77;;;;;;;13.51;100.00;100991.52;2009439;71;32800;-82
2022/04/05 09:58:55;;;;;;;58.77;55.27;;;;;;;13.69;100.00;100982.32;1997240;71;33341;-82
2022/04/05 10:05:02;;;;;;;58.73;55.20;;;;;;;13.57;100.00;100973.55;1998950;71;32857;-75
2022/04/05 10:10:48;;;;;;;58.03;54.53;;;;;;;13.69;100.00;100975.34;2011753;71;32739;-82
2022/04/05 10:16:35;;;;;;;63.93;59.57;;;;;;;13.79;100.00;100977.12;2004438;71;32794;-74
2022/04/05 10:22:22;;;;;;;56.77;53.27;;;;;;;13.84;100.00;100969.50;2009698;71;32813;-77
2022/04/05 10:28:09;;;;;;;55.40;52.17;;;;;;;13.96;100.00;100964.27;2009442;71;33492;-74
2022/04/05 10:34:03;;;;;;;56.60;52.57;;;;;;;13.88;100.00;100962.17;2011117;71;32807;-73
2022/04/05 10:40:10;;;;;;;54.33;51.10;;;;;;;13.82;100.00;100955.59;2009588;71;32898;-73
2022/04/05 10:45:55;;;;;;;61.10;57.43;;;;;;;13.59;100.00;100962.92;2004391;71;32742;-74
2022/04/05 10:52:07;;;;;;;58.37;54.60;;;;;;;13.71;100.00;100953.52;2015095;71;32897;-81
2022/04/05 10:58:01;;;;;;;56.80;53.17;;;;;;;13.91;100.00;100943.41;2000909;71;33286;-74
2022/04/05 11:03:59;;;;;;;51.77;48.50;;;;;;;13.83;100.00;100925.12;1991953;71;32886;-76
2022/04/05 11:09:52;;;;;;;54.87;51.63;;;;;;;13.88;100.00;100936.20;2018578;71;32916;-75
2022/04/05 11:15:42;;;;;;;57.77;53.87;;;;;;;13.78;100.00;100939.99;2017000;71;33371;-81
2022/04/05 11:21:27;;;;;;;56.03;52.43;;;;;;;14.01;100.00;100924.25;1995166;71;32802;-82
2022/04/05 11:27:28;;;;;;;58.80;54.80;;;;;;;14.13;100.00;100937.98;2016860;71;32812;-78
2022/04/05 11:30:40;;;;;;;61.90;58.07;;;;;;;13.96;100.00;100932.15;1970277;72;26320;-77
2022/04/05 11:33:49;;;;;;;60.20;56.30;;;;;;;14.08;100.00;100940.03;1970818;72;26294;-76
2022/04/05 11:39:39;;;;;;;59.20;55.50;;;;;;;13.92;100.00;100934.46;2016869;71;32824;-75
2022/04/05 11:45:24;;;;;;;57.03;53.23;;;;;;;13.91;100.00;100924.42;2014908;71;32896;-75
2022/04/05 11:51:11;;;;;;;59.20;55.30;;;;;;;13.96;100.00;100920.98;2018451;71;33374;-72
2022/04/05 11:56:57;;;;;;;60.23;56.03;;;;;;;13.98;100.00;100915.93;1980149;72;33046;-77
2022/04/05 12:02:42;;;;;;;58.30;54.33;;;;;;;13.94;100.00;100919.64;2009436;71;33390;-77
2022/04/05 12:08:27;;;;;;;60.00;55.97;;;;;;;13.96;100.00;100904.22;2007503;71;32817;-71
2022/04/05 12:14:12;;;;;;;52.83;49.53;;;;;;;14.22;100.00;100901.79;2009247;71;32929;-77
2022/04/05 12:20:07;;;;;;;53.37;49.83;;;;;;;14.30;100.00;100891.30;2009639;71;33272;-75
2022/04/05 12:26:10;;;;;;;52.47;49.17;;;;;;;14.21;100.00;100887.55;2007462;71;32827;-70
2022/04/05 12:31:56;;;;;;;53.83;50.43;;;;;;;14.13;100.00;100879.33;2013423;71;33267;-68
2022/04/05 12:37:44;;;;;;;52.57;49.17;;;;;;;14.49;100.00;100862.73;2014748;71;32864;-69
2022/04/05 12:43:39;;;;;;;49.03;46.03;;;;;;;14.67;100.00;100858.16;2013491;71;32770;-70
2022/04/05 12:49:31;;;;;;;45.33;42.30;;;;;;;14.98;100.00;100845.70;1991496;71;32766;-69
2022/04/05 12:55:24;;;;;;;45.63;43.00;;;;;;;14.80;100.00;100848.93;2013087;71;33352;-77
2022/04/05 13:01:28;;;;;;;41.00;38.27;;;;;;;14.72;100.00;100841.25;2000894;71;33282;-76
2022/04/05 13:07:18;;;;;;;34.80;32.40;;;;;;;15.06;100.00;100823.17;1997087;71;32900;-67
2022/04/05 13:13:15;;;;;;;40.23;37.73;;;;;;;15.26;100.00;100819.30;1996989;71;32820;-71
2022/04/05 13:19:09;;;;;;;33.97;31.93;;;;;;;15.09;100.00;100822.53;2014827;71;32782;-78
2022/04/05 13:25:03;;;;;;;34.33;32.03;;;;;;;14.87;100.00;100820.52;1995274;71;33308;-70
2022/04/05 13:30:48;;;;;;;36.40;34.17;;;;;;;15.38;100.00;100811.16;2012069;71;33185;-67
2022/04/05 13:36:32;;;;;;;36.67;34.10;;;;;;;15.24;100.00;100810.95;2009411;71;32910;-70
2022/04/05 13:42:17;;;;;;;34.90;32.60;;;;;;;14.83;100.00;100809.14;2008298;71;32752;-70
2022/04/05 13:48:01;;;;;;;34.13;31.70;;;;;;;15.09;100.00;100797.35;2016915;71;33349;-70
2022/04/05 13:53:45;;;;;;;32.80;30.90;;;;;;;15.12;100.00;100798.94;1997069;71;33408;-72
2022/04/05 13:59:30;;;;;;;33.97;31.77;;;;;;;14.89;100.00;100797.27;1996882;71;32858;-71
2022/04/05 14:05:15;;;;;;;36.07;33.83;;;;;;;14.89;100.00;100801.47;2003942;71;32851;-74
2022/04/05 14:11:00;;;;;;;31.17;29.10;;;;;;;15.40;100.00;100796.86;2016329;71;32937;-74
2022/04/05 14:16:44;;;;;;;32.57;30.27;;;;;;;15.10;100.00;100798.45;2004342;71;32732;-72
2022/04/05 14:22:28;;;;;;;27.73;25.87;;;;;;;15.24;100.00;100792.77;2005881;71;33320;-74
2022/04/05 14:28:13;;;;;;;19.70;18.33;;;;;;;15.22;100.00;100793.67;1995104;70;32842;-71
2022/04/05 14:33:57;;;;;;;19.07;17.83;;;;;;;15.42;100.00;100781.39;2002463;71;32779;-71
2022/04/05 14:39:42;;;;;;;18.27;16.87;;;;;;;15.65;100.00;100782.80;2011121;71;32896;-74
2022/04/05 14:45:26;;;;;;;18.03;16.73;;;;;;;15.19;100.00;100778.33;2000674;71;32788;-74
2022/04/05 14:51:13;;;;;;;17.27;16.07;;;;;;;15.23;100.00;100761.75;2016731;71;32933;-72
2022/04/05 14:56:59;;;;;;;18.03;16.93;;;;;;;15.22;100.00;100755.33;1968550;72;32844;-74
2022/04/05 15:02:45;;;;;;;15.33;14.53;;;;;;;15.23;100.00;100750.56;2016457;71;32911;-71
2022/04/05 15:08:29;;;;;;;15.77;14.77;;;;;;;15.19;100.00;100748.15;2002620;71;32913;-70
2022/04/05 15:14:13;;;;;;;15.47;14.33;;;;;;;14.98;100.00;100738.02;2004292;71;32929;-72
2022/04/05 15:19:58;;;;;;;15.63;14.63;;;;;;;14.81;100.00;100736.48;2000843;71;33246;-74
2022/04/05 15:25:42;;;;;;;16.10;15.20;;;;;;;14.95;100.00;100727.47;2004377;71;32775;-75
2022/04/05 15:31:26;;;;;;;15.83;14.73;;;;;;;15.07;100.00;100722.69;2016708;71;32851;-71
2022/04/05 15:37:12;;;;;;;15.33;14.33;;;;;;;15.17;100.00;100728.87;1998976;71;32872;-71
2022/04/05 15:42:56;;;;;;;16.60;15.37;;;;;;;15.29;100.00;100720.72;2003888;71;33029;-67
2022/04/05 15:48:41;;;;;;;14.57;13.77;;;;;;;15.69;100.00;100718.83;2006039;71;32932;-69
2022/04/05 15:54:26;;;;;;;13.93;13.03;;;;;;;15.43;100.00;100708.04;2014959;71;33546;-68
2022/04/05 16:00:15;;;;;;;13.57;12.57;;;;;;;15.26;100.00;100711.57;2011757;71;32830;-68
2022/04/05 16:06:00;;;;;;;14.97;13.87;;;;;;;15.03;100.00;100709.92;2008157;71;32828;-74
2022/04/05 16:11:44;;;;;;;14.63;13.87;;;;;;;14.89;100.00;100704.98;2007436;71;32943;-67
2022/04/05 16:17:28;;;;;;;16.43;15.43;;;;;;;14.81;100.00;100704.31;2009805;71;33350;-68
2022/04/05 16:23:13;;;;;;;16.07;15.07;;;;;;;14.76;100.00;100696.08;2014856;71;33000;-70
2022/04/05 16:28:58;;;;;;;16.83;15.67;;;;;;;14.72;100.00;100695.06;1997118;71;32839;-74
2022/04/05 16:34:47;;;;;;;17.13;16.03;;;;;;;14.66;100.00;100701.34;2016796;71;33378;-70
2022/04/05 16:40:31;;;;;;;16.73;15.60;;;;;;;14.57;100.00;100700.44;2006092;71;32785;-75
2022/04/05 16:46:15;;;;;;;16.90;16.00;;;;;;;14.52;100.00;100706.97;2018632;71;32901;-73
2022/04/05 16:51:59;;;;;;;16.63;15.73;;;;;;;14.53;100.00;100704.44;2007640;71;33301;-69
2022/04/05 16:57:44;;;;;;;16.77;15.87;;;;;;;14.40;100.00;100694.12;2009425;71;33414;-70
2022/04/05 17:03:29;;;;;;;16.70;15.80;;;;;;;14.32;100.00;100689.25;2006040;71;33366;-75
2022/04/05 17:09:16;;;;;;;15.73;14.83;;;;;;;14.28;100.00;100690.19;2011282;71;32886;-70
2022/04/05 17:15:00;;;;;;;18.13;17.03;;;;;;;14.19;100.00;100697.09;2007996;71;32852;-74
2022/04/05 17:20:44;;;;;;;16.47;15.57;;;;;;;14.09;100.00;100694.50;1995327;71;33314;-69
2022/04/05 17:26:29;;;;;;;17.40;16.50;;;;;;;13.93;100.00;100708.54;2005894;71;33324;-74
2022/04/05 17:32:16;;;;;;;16.73;15.73;;;;;;;13.89;100.00;100706.11;2002227;71;32889;-72
2022/04/05 17:38:00;;;;;;;17.30;16.30;;;;;;;13.72;100.00;100705.34;1994859;71;32857;-77
2022/04/05 17:43:47;;;;;;;17.03;16.00;;;;;;;13.52;100.00;100698.77;1991693;71;32847;-78
2022/04/05 17:49:32;;;;;;;16.77;15.93;;;;;;;13.42;100.00;100712.34;2013743;71;33338;-79
2022/04/05 17:55:17;;;;;;;16.60;15.60;;;;;;;13.31;100.00;100711.42;2001027;71;32776;-73
2022/04/05 18:01:02;;;;;;;14.77;13.87;;;;;;;13.37;100.00;100712.99;2013733;71;33323;-71
2022/04/05 18:06:47;;;;;;;14.40;13.37;;;;;;;13.26;100.00;100723.52;2016475;71;32833;-75
2022/04/05 18:12:31;;;;;;;14.57;13.67;;;;;;;13.05;100.00;100718.01;2014956;71;32848;-79
2022/04/05 18:18:15;;;;;;;13.83;13.10;;;;;;;13.01;100.00;100709.41;2008235;71;33259;-76
2022/04/05 18:24:00;;;;;;;15.90;14.83;;;;;;;13.09;100.00;100703.72;2025708;70;32890;-75
2022/04/05 18:29:45;;;;;;;13.40;12.70;;;;;;;13.07;100.00;100712.38;2009232;71;32831;-75
2022/04/05 18:35:29;;;;;;;13.30;12.53;;;;;;;13.01;100.00;100709.96;2017055;71;33381;-75
2022/04/05 18:41:14;;;;;;;13.30;12.60;;;;;;;12.91;100.00;100708.20;2014836;71;32961;-69
2022/04/05 18:46:59;;;;;;;13.57;12.67;;;;;;;12.76;100.00;100692.54;1994663;71;32806;-75
2022/04/05 18:52:43;;;;;;;34.93;31.93;;;;;;;12.64;100.00;100700.55;2018561;71;32898;-77
2022/04/05 18:58:28;;;;;;;14.33;13.60;;;;;;;12.61;100.00;100701.16;2011083;71;32884;-67
2022/04/05 19:04:14;;;;;;;15.70;14.80;;;;;;;12.54;100.00;100703.48;2005800;71;33469;-68
2022/04/05 19:09:58;;;;;;;15.00;14.10;;;;;;;12.36;100.00;100710.46;2004567;71;32784;-77
2022/04/05 19:15:43;;;;;;;14.97;14.23;;;;;;;12.33;100.00;100703.52;1998502;71;32844;-76
2022/04/05 19:21:27;;;;;;;15.93;14.97;;;;;;;12.31;100.00;100712.75;2002496;71;32833;-74
2022/04/05 19:27:12;;;;;;;15.03;14.20;;;;;;;12.36;100.00;100700.15;2001055;71;32786;-78
2022/04/05 19:32:57;;;;;;;15.37;14.47;;;;;;;12.41;100.00;100706.21;1991701;71;33429;-74
2022/04/05 19:38:42;;;;;;;15.20;14.30;;;;;;;12.31;100.00;100712.75;1999827;71;33308;-80
2022/04/05 19:44:26;;;;;;;15.20;14.20;;;;;;;12.37;100.00;100705.96;2016939;71;32846;-76
2022/04/05 19:50:11;;;;;;;15.53;14.53;;;;;;;12.39;100.00;100715.42;2002607;71;32956;-73
2022/04/05 19:55:56;;;;;;;15.50;14.40;;;;;;;12.27;100.00;100708.91;2014922;71;32852;-74
2022/04/05 20:01:40;;;;;;;15.63;14.63;;;;;;;12.23;100.00;100702.28;2003948;71;32908;-76
2022/04/05 20:07:24;;;;;;;16.60;15.40;;;;;;;12.19;100.00;100701.23;2013023;71;32846;-74
2022/04/05 20:13:09;;;;;;;17.30;16.30;;;;;;;12.17;100.00;100697.91;2009570;71;32835;-74
2022/04/05 20:18:54;;;;;;;17.83;16.93;;;;;;;12.06;100.00;100696.39;1999018;71;33243;-75
2022/04/05 20:24:39;;;;;;;18.60;17.50;;;;;;;12.02;100.00;100683.64;2002323;71;33435;-70
2022/04/05 20:30:25;;;;;;;18.50;17.20;;;;;;;12.00;100.00;100681.70;2009439;71;32841;-70
2022/04/05 20:36:10;;;;;;;19.17;18.00;;;;;;;12.02;100.00;100678.08;2005889;71;33471;-75
2022/04/05 20:41:54;;;;;;;20.00;19.00;;;;;;;11.94;100.00;100664.80;2013092;70;32856;-74
2022/04/05 20:47:39;;;;;;;23.20;21.77;;;;;;;11.82;100.00;100661.63;2002619;71;33328;-71
2022/04/05 20:53:27;;;;;;;23.93;22.63;;;;;;;11.81;100.00;100666.91;2008057;71;32879;-73
2022/04/05 20:59:11;;;;;;;24.27;22.77;;;;;;;11.75;100.00;100663.39;2013169;71;32961;-73
2022/04/05 21:04:57;;;;;;;24.77;23.40;;;;;;;11.85;100.00;100651.31;2013085;71;33368;-76
2022/04/05 21:10:41;;;;;;;25.77;24.37;;;;;;;11.82;100.00;100655.50;2003673;71;32902;-76
2022/04/05 21:16:26;;;;;;;28.03;26.27;;;;;;;11.71;100.00;100656.73;2014980;71;33311;-73
2022/04/05 21:22:12;;;;;;;27.67;25.93;;;;;;;11.55;100.00;100626.03;2005607;71;32834;-73
2022/04/05 21:27:56;;;;;;;26.83;25.00;;;;;;;11.68;100.00;100642.00;2009252;71;32863;-76
2022/04/05 21:33:41;;;;;;;27.57;25.70;;;;;;;11.69;100.00;100631.70;1998424;71;32865;-72
2022/04/05 21:39:26;;;;;;;30.13;28.53;;;;;;;11.58;100.00;100607.38;2009727;71;32923;-73
2022/04/05 21:45:12;;;;;;;27.67;26.23;;;;;;;11.46;100.00;100600.59;2004729;71;33201;-77
2022/04/05 21:50:58;;;;;;;28.70;27.07;;;;;;;11.60;100.00;100601.50;2015176;71;33326;-77
2022/04/05 21:56:42;;;;;;;31.47;29.70;;;;;;;11.53;100.00;100596.31;2018522;71;32865;-72
2022/04/05 22:02:27;;;;;;;31.83;30.23;;;;;;;11.47;100.00;100594.70;2000407;71;33274;-73
2022/04/05 22:08:11;;;;;;;32.30;30.50;;;;;;;11.42;100.00;100587.84;2008227;71;33336;-76
2022/04/05 22:13:56;;;;;;;33.87;31.70;;;;;;;11.38;100.00;100577.85;2013256;71;32852;-73
2022/04/05 22:19:40;;;;;;;33.50;31.50;;;;;;;11.32;100.00;100561.54;2012835;71;32821;-76
2022/04/05 22:25:25;;;;;;;34.20;31.93;;;;;;;11.16;100.00;100562.86;2009307;71;32842;-75
2022/04/05 22:31:10;;;;;;;34.23;32.27;;;;;;;11.16;100.00;100558.69;2012884;71;32791;-72
2022/04/05 22:36:54;;;;;;;34.23;32.03;;;;;;;11.15;100.00;100563.42;1994730;71;32850;-74
2022/04/05 22:42:39;;;;;;;35.60;33.60;;;;;;;11.11;100.00;100558.74;1994939;71;33349;-76
2022/04/05 22:48:24;;;;;;;36.13;33.93;;;;;;;11.12;100.00;100545.95;2004053;71;33403;-73
2022/04/05 22:54:08;;;;;;;36.57;34.50;;;;;;;11.17;100.00;100541.70;2014701;71;32837;-77
2022/04/05 22:59:53;;;;;;;37.47;35.27;;;;;;;11.24;100.00;100534.41;2009923;71;33438;-77
2022/04/05 23:05:37;;;;;;;37.20;35.07;;;;;;;11.25;100.00;100538.84;2004236;71;32799;-75
2022/04/05 23:11:24;;;;;;;35.37;33.17;;;;;;;11.33;100.00;100534.84;2000584;71;32742;-74
2022/04/05 23:17:08;;;;;;;34.00;31.80;;;;;;;11.34;100.00;100521.73;2004447;71;32729;-76
2022/04/05 23:22:53;;;;;;;31.87;30.20;;;;;;;11.41;100.00;100520.27;2013238;71;32884;-73
2022/04/05 23:28:37;;;;;;;32.53;30.60;;;;;;;11.41;100.00;100519.44;2014941;71;32929;-75
2022/04/05 23:34:22;;;;;;;30.70;28.80;;;;;;;11.44;100.00;100521.61;2016721;71;32927;-77
2022/04/05 23:40:09;;;;;;;30.23;28.57;;;;;;;11.46;100.00;100513.81;2014860;71;33360;-75
2022/04/05 23:45:53;;;;;;;28.73;27.03;;;;;;;11.46;100.00;100511.59;2002722;71;32814;-73
2022/04/05 23:51:37;;;;;;;29.07;27.37;;;;;;;11.48;100.00;100501.81;1998924;71;33299;-75
2022/04/05 23:57:21;;;;;;;28.83;27.13;;;;;;;11.42;100.00;100490.52;1977751;72;33334;-73
